createdAt,value
2023-01-11T00:01:21.764Z,3.20
2023-01-11T00:03:23.427Z,3.30
2023-01-11T00:05:25.749Z,3.40
2023-01-11T00:07:27.567Z,3.50
2023-01-11T00:09:29.238Z,3.50
2023-01-11T00:11:30.950Z,3.50
2023-01-11T00:13:33.140Z,3.70
2023-01-11T00:15:36.468Z,3.70
2023-01-11T00:17:38.165Z,3.70
2023-01-11T00:19:40.068Z,3.70
2023-01-11T00:21:41.727Z,3.80
2023-01-11T00:23:43.473Z,3.80
2023-01-11T00:25:45.359Z,4.00
2023-01-11T00:27:49.902Z,4.00
2023-01-11T00:29:51.901Z,4.10
2023-01-11T00:31:53.585Z,4.10
2023-01-11T00:33:55.425Z,4.10
2023-01-11T00:35:57.476Z,4.30
2023-01-11T00:37:59.423Z,4.30
2023-01-11T00:40:01.238Z,4.30
2023-01-11T00:42:21.628Z,4.20
2023-01-11T00:44:42.121Z,4.20
2023-01-11T00:47:02.406Z,4.20
2023-01-11T00:49:04.071Z,4.20
2023-01-11T00:51:05.895Z,4.20
2023-01-11T00:53:09.391Z,4.10
2023-01-11T00:55:11.232Z,4.20
2023-01-11T00:57:13.029Z,4.20
2023-01-11T00:59:15.122Z,4.30
2023-01-11T01:01:16.955Z,4.30
2023-01-11T01:03:18.691Z,4.40
2023-01-11T01:05:20.687Z,4.40
2023-01-11T01:07:22.511Z,4.50
2023-01-11T01:09:24.409Z,4.50
2023-01-11T01:11:26.090Z,4.50
2023-01-11T01:13:46.210Z,4.60
2023-01-11T01:15:47.998Z,4.60
2023-01-11T01:17:52.167Z,4.60
2023-01-11T01:19:53.970Z,4.80
2023-01-11T01:21:57.548Z,4.90
2023-01-11T01:23:59.304Z,4.90
2023-01-11T01:26:03.997Z,5.00
2023-01-11T01:28:05.747Z,5.00
2023-01-11T01:30:08.446Z,5.10
2023-01-11T01:32:10.442Z,5.20
2023-01-11T01:34:12.436Z,5.20
2023-01-11T01:36:14.143Z,5.30
2023-01-11T01:38:16.631Z,5.40
2023-01-11T01:40:18.533Z,5.40
2023-01-11T01:42:21.762Z,5.50
2023-01-11T01:44:56.563Z,5.50
2023-01-11T01:46:58.276Z,5.60
2023-01-11T01:49:12.132Z,5.70
2023-01-11T01:51:20.916Z,5.70
2023-01-11T01:53:29.299Z,5.80
2023-01-11T01:55:36.357Z,5.80
2023-01-11T01:57:41.296Z,5.90
2023-01-11T01:59:43.299Z,5.80
2023-01-11T02:01:49.445Z,5.80
2023-01-11T02:03:52.408Z,5.70
2023-01-11T02:05:54.398Z,5.70
2023-01-11T02:07:59.495Z,5.60
2023-01-11T02:10:01.338Z,5.60
2023-01-11T02:12:05.835Z,5.50
2023-01-11T02:14:12.642Z,5.50
2023-01-11T02:16:14.337Z,5.60
2023-01-11T02:18:18.730Z,5.50
2023-01-11T02:20:26.215Z,5.60
2023-01-11T02:23:01.424Z,5.60
2023-01-11T02:25:21.225Z,5.70
2023-01-11T02:27:52.933Z,5.80
2023-01-11T02:30:16.612Z,5.90
2023-01-11T02:32:37.064Z,5.90
2023-01-11T02:34:51.354Z,6.00
2023-01-11T02:37:12.996Z,6.10
2023-01-11T02:39:44.722Z,6.10
2023-01-11T02:42:29.615Z,6.20
2023-01-11T02:45:08.554Z,6.20
2023-01-11T02:47:28.860Z,6.20
2023-01-11T02:49:47.065Z,6.10
2023-01-11T02:51:59.057Z,6.10
2023-01-11T02:54:11.835Z,6.20
2023-01-11T02:56:19.783Z,6.40
2023-01-11T02:58:25.171Z,6.40
2023-01-11T03:00:27.932Z,6.40
2023-01-11T03:02:29.573Z,6.40
2023-01-11T03:04:35.652Z,6.40
2023-01-11T03:06:37.809Z,6.30
2023-01-11T03:08:57.763Z,6.40
2023-01-11T03:11:07.492Z,6.40
2023-01-11T03:13:20.462Z,6.30
2023-01-11T03:15:28.255Z,6.20
2023-01-11T03:18:00.751Z,6.20
2023-01-11T03:20:07.972Z,6.10
2023-01-11T03:22:21.674Z,6.00
2023-01-11T03:24:50.355Z,6.00
2023-01-11T03:27:08.932Z,5.90
2023-01-11T03:29:31.801Z,5.90
2023-01-11T03:31:46.195Z,5.80
2023-01-11T03:34:00.702Z,5.80
2023-01-11T03:36:16.983Z,5.80
2023-01-11T03:38:33.162Z,5.80
2023-01-11T03:40:42.503Z,5.70
2023-01-11T03:43:07.762Z,5.70
2023-01-11T03:45:10.112Z,5.70
2023-01-11T03:47:15.706Z,5.80
2023-01-11T03:49:25.112Z,5.80
2023-01-11T03:51:30.388Z,5.90
2023-01-11T03:53:35.520Z,6.00
2023-01-11T03:55:40.762Z,6.00
2023-01-11T03:57:51.448Z,6.00
2023-01-11T03:59:53.681Z,6.00
2023-01-11T04:01:56.216Z,6.10
2023-01-11T04:03:58.018Z,6.10
2023-01-11T04:06:02.192Z,6.10
2023-01-11T04:08:04.035Z,6.10
2023-01-11T04:10:06.437Z,6.20
2023-01-11T04:12:08.552Z,6.20
2023-01-11T04:14:10.673Z,6.40
2023-01-11T04:16:12.494Z,6.40
2023-01-11T04:18:14.198Z,6.50
2023-01-11T04:20:16.075Z,6.50
2023-01-11T04:22:17.780Z,6.50
2023-01-11T04:24:19.683Z,6.50
2023-01-11T04:26:21.538Z,6.40
2023-01-11T04:28:23.247Z,6.50
2023-01-11T04:30:25.675Z,6.50
2023-01-11T04:32:27.379Z,6.40
2023-01-11T04:34:29.178Z,6.40
2023-01-11T04:36:31.552Z,6.50
2023-01-11T04:38:34.242Z,6.50
2023-01-11T04:40:35.999Z,6.40
2023-01-11T04:42:38.131Z,6.50
2023-01-11T04:44:39.874Z,6.60
2023-01-11T04:46:41.817Z,6.60
2023-01-11T04:48:43.592Z,6.60
2023-01-11T04:50:49.174Z,6.60
2023-01-11T04:52:51.125Z,6.50
2023-01-11T04:54:54.039Z,6.60
2023-01-11T04:56:55.784Z,6.60
2023-01-11T04:58:57.494Z,6.60
2023-01-11T05:00:59.142Z,6.60
2023-01-11T05:03:00.830Z,6.50
2023-01-11T05:05:02.937Z,6.50
2023-01-11T05:07:04.696Z,6.30
2023-01-11T05:09:11.880Z,6.20
2023-01-11T05:11:13.971Z,6.20
2023-01-11T05:13:15.869Z,6.10
2023-01-11T05:15:17.567Z,6.10
2023-01-11T05:17:19.295Z,6.20
2023-01-11T05:19:21.043Z,6.30
2023-01-11T05:21:25.457Z,6.40
2023-01-11T05:23:27.103Z,6.50
2023-01-11T05:25:28.849Z,6.60
2023-01-11T05:27:30.526Z,6.70
2023-01-11T05:29:32.293Z,6.70
2023-01-11T05:31:35.640Z,6.80
2023-01-11T05:33:37.486Z,6.90
2023-01-11T05:35:39.191Z,7.00
2023-01-11T05:37:40.953Z,6.90
2023-01-11T05:39:42.717Z,6.90
2023-01-11T05:41:44.643Z,6.90
2023-01-11T05:44:07.048Z,6.90
2023-01-11T05:46:08.717Z,6.90
2023-01-11T05:48:10.455Z,6.80
2023-01-11T05:50:12.163Z,6.80
2023-01-11T05:52:13.961Z,6.70
2023-01-11T05:54:16.044Z,6.70
2023-01-11T05:56:17.765Z,6.60
2023-01-11T05:58:19.495Z,6.60
2023-01-11T06:00:21.538Z,6.60
2023-01-11T06:02:23.263Z,6.50
2023-01-11T06:04:25.113Z,6.50
2023-01-11T06:06:27.246Z,6.50
2023-01-11T06:08:28.973Z,6.50
2023-01-11T06:10:30.725Z,6.60
2023-01-11T06:12:32.471Z,6.70
2023-01-11T06:14:35.893Z,6.60
2023-01-11T06:16:39.129Z,6.60
2023-01-11T06:18:44.910Z,6.60
2023-01-11T06:20:54.118Z,6.60
2023-01-11T06:22:55.798Z,6.60
2023-01-11T06:24:57.513Z,6.60
2023-01-11T06:26:59.239Z,6.60
2023-01-11T06:29:01.239Z,6.50
2023-01-11T06:31:03.761Z,6.40
2023-01-11T06:33:06.157Z,6.40
2023-01-11T06:35:08.377Z,6.40
2023-01-11T06:37:10.198Z,6.40
2023-01-11T06:39:11.914Z,6.40
2023-01-11T06:41:13.784Z,6.30
2023-01-11T06:43:15.423Z,6.20
2023-01-11T06:45:17.154Z,6.20
2023-01-11T06:47:18.794Z,6.10
2023-01-11T06:49:20.506Z,6.20
2023-01-11T06:51:22.315Z,6.10
2023-01-11T06:53:28.272Z,6.10
2023-01-11T06:55:31.176Z,6.00
2023-01-11T06:57:33.709Z,5.90
2023-01-11T06:59:35.481Z,5.90
2023-01-11T07:01:37.405Z,5.90
2023-01-11T07:03:40.215Z,5.90
2023-01-11T07:05:44.895Z,6.00
2023-01-11T07:07:46.926Z,6.00
2023-01-11T07:09:48.647Z,6.00
2023-01-11T07:11:50.295Z,6.00
2023-01-11T07:13:52.044Z,6.00
2023-01-11T07:15:57.318Z,6.00
2023-01-11T07:18:00.019Z,6.30
2023-01-11T07:20:02.009Z,6.40
2023-01-11T07:22:03.739Z,6.40
2023-01-11T07:24:05.734Z,6.50
2023-01-11T07:26:07.709Z,6.60
2023-01-11T07:28:10.052Z,6.60
2023-01-11T07:30:12.168Z,6.70
2023-01-11T07:32:14.401Z,6.80
2023-01-11T07:34:16.212Z,6.80
2023-01-11T07:36:18.299Z,6.80
2023-01-11T07:38:20.127Z,6.80
2023-01-11T07:40:21.927Z,6.90
2023-01-11T07:42:42.398Z,6.90
2023-01-11T07:44:44.169Z,6.90
2023-01-11T07:46:45.929Z,7.00
2023-01-11T07:48:47.737Z,6.90
2023-01-11T07:50:49.506Z,6.90
2023-01-11T07:52:51.461Z,6.90
2023-01-11T07:54:53.311Z,7.00
2023-01-11T07:56:56.623Z,7.00
2023-01-11T07:58:58.478Z,7.10
2023-01-11T08:01:00.255Z,7.20
2023-01-11T08:03:02.936Z,7.30
2023-01-11T08:05:05.022Z,7.30
2023-01-11T08:07:07.065Z,7.30
2023-01-11T08:09:10.163Z,7.40
2023-01-11T08:11:31.152Z,7.40
2023-01-11T08:13:51.536Z,7.40
2023-01-11T08:15:53.236Z,7.40
2023-01-11T08:17:55.077Z,7.40
2023-01-11T08:19:56.764Z,7.40
2023-01-11T08:21:58.698Z,7.50
2023-01-11T08:24:00.498Z,7.50
2023-01-11T08:26:02.330Z,7.60
2023-01-11T08:28:06.767Z,7.60
2023-01-11T08:30:09.330Z,7.70
2023-01-11T08:32:13.009Z,7.70
2023-01-11T08:34:15.502Z,7.70
2023-01-11T08:36:17.444Z,7.70
2023-01-11T08:38:19.132Z,7.70
2023-01-11T08:40:23.739Z,7.70
2023-01-11T08:42:26.253Z,7.70
2023-01-11T08:44:35.346Z,7.70
2023-01-11T08:46:38.169Z,7.70
2023-01-11T08:48:39.920Z,7.70
2023-01-11T08:50:41.921Z,7.70
2023-01-11T08:52:43.855Z,7.80
2023-01-11T08:54:45.900Z,7.80
2023-01-11T08:56:47.942Z,7.70
2023-01-11T08:58:49.752Z,7.60
2023-01-11T09:00:51.513Z,7.70
2023-01-11T09:02:53.341Z,7.60
2023-01-11T09:04:55.083Z,7.70
2023-01-11T09:06:56.760Z,7.70
2023-01-11T09:08:58.405Z,7.80
2023-01-11T09:11:00.518Z,7.80
2023-01-11T09:13:02.336Z,7.70
2023-01-11T09:15:06.193Z,7.70
2023-01-11T09:17:08.393Z,7.80
2023-01-11T09:19:10.411Z,7.80
2023-01-11T09:21:12.133Z,7.80
2023-01-11T09:23:14.006Z,7.80
2023-01-11T09:25:16.482Z,7.90
2023-01-11T09:27:19.006Z,7.90
2023-01-11T09:29:20.838Z,7.90
2023-01-11T09:31:22.773Z,7.90
2023-01-11T09:33:24.470Z,7.90
2023-01-11T09:35:27.083Z,8.00
2023-01-11T09:37:29.112Z,8.00
2023-01-11T09:39:30.891Z,8.10
2023-01-11T09:41:45.089Z,8.20
2023-01-11T09:43:56.872Z,8.20
2023-01-11T09:46:06.773Z,8.30
2023-01-11T09:48:30.711Z,8.30
2023-01-11T09:50:41.232Z,8.30
2023-01-11T09:52:47.506Z,8.40
2023-01-11T09:54:49.272Z,8.40
2023-01-11T09:57:13.920Z,8.30
2023-01-11T09:59:22.996Z,8.30
2023-01-11T10:01:38.979Z,8.30
2023-01-11T10:04:08.605Z,8.30
2023-01-11T10:06:31.287Z,8.30
2023-01-11T10:18:32.627Z,8.50
2023-01-11T10:18:34.384Z,8.60
2023-01-11T10:19:49.479Z,8.60
2023-01-11T10:22:00.595Z,8.60
2023-01-11T10:24:12.126Z,8.60
2023-01-11T10:26:27.217Z,8.60
2023-01-11T10:28:43.101Z,8.70
2023-01-11T10:31:10.020Z,8.70
2023-01-11T10:33:50.432Z,8.70
2023-01-11T10:36:18.515Z,8.70
2023-01-11T10:39:11.981Z,8.60
2023-01-11T10:41:26.064Z,8.60
2023-01-11T10:43:30.406Z,8.60
2023-01-11T10:45:52.646Z,8.60
2023-01-11T10:48:11.891Z,8.60
2023-01-11T10:50:39.306Z,8.60
2023-01-11T10:53:15.155Z,8.70
2023-01-11T10:55:29.565Z,8.70
2023-01-11T10:57:59.700Z,8.70
2023-01-11T11:00:22.745Z,8.70
2023-01-11T11:03:02.058Z,8.60
2023-01-11T11:05:41.340Z,8.60
2023-01-11T11:08:13.217Z,8.70
2023-01-11T11:10:42.117Z,8.70
2023-01-11T11:13:09.608Z,8.70
2023-01-11T11:15:19.915Z,8.70
2023-01-11T11:17:26.538Z,8.70
2023-01-11T11:19:32.759Z,8.70
2023-01-11T11:21:38.421Z,8.60
2023-01-11T11:23:40.134Z,8.50
2023-01-11T11:25:44.108Z,8.50
2023-01-11T11:27:56.963Z,8.50
2023-01-11T11:29:58.669Z,8.40
2023-01-11T11:32:01.616Z,8.40
2023-01-11T11:34:08.546Z,8.40
2023-01-11T11:36:12.987Z,8.30
2023-01-11T11:38:38.852Z,8.30
2023-01-11T11:40:40.605Z,8.30
2023-01-11T11:42:42.389Z,8.30
2023-01-11T11:44:44.152Z,8.20
2023-01-11T11:46:57.968Z,8.30
2023-01-11T11:49:13.249Z,8.30
2023-01-11T11:51:21.867Z,8.30
2023-01-11T11:53:33.554Z,8.30
2023-01-11T11:55:35.907Z,8.30
2023-01-11T11:57:42.758Z,8.40
2023-01-11T11:59:47.600Z,8.40
2023-01-11T12:02:00.720Z,8.40
2023-01-11T12:04:22.434Z,8.40
2023-01-11T12:06:27.540Z,8.50
2023-01-11T12:08:32.545Z,8.50
2023-01-11T12:10:34.456Z,8.50
2023-01-11T12:12:51.753Z,8.50
2023-01-11T12:15:16.503Z,8.50
2023-01-11T12:17:27.398Z,8.60
2023-01-11T12:19:41.842Z,8.50
2023-01-11T12:21:43.720Z,8.50
2023-01-11T12:23:45.625Z,8.50
2023-01-11T12:26:12.283Z,8.50
2023-01-11T12:28:52.826Z,8.50
2023-01-11T12:31:31.188Z,8.50
2023-01-11T12:33:58.408Z,8.50
2023-01-11T12:36:29.319Z,8.50
2023-01-11T12:38:39.070Z,8.50
2023-01-11T12:40:49.339Z,8.50
2023-01-11T12:43:15.455Z,8.50
2023-01-11T12:45:35.877Z,8.40
2023-01-11T12:47:55.159Z,8.50
2023-01-11T12:50:24.969Z,8.40
2023-01-11T12:52:41.703Z,8.40
2023-01-11T12:55:01.873Z,8.50
2023-01-11T12:57:25.657Z,8.40
2023-01-11T12:59:33.295Z,8.40
2023-01-11T13:01:53.616Z,8.40
2023-01-11T13:04:26.305Z,8.40
2023-01-11T13:06:46.528Z,8.40
2023-01-11T13:09:00.288Z,8.40
2023-01-11T13:11:35.245Z,8.50
2023-01-11T13:13:49.901Z,8.40
2023-01-11T13:16:07.207Z,8.40
2023-01-11T13:18:16.408Z,8.40
2023-01-11T13:21:01.383Z,8.40
2023-01-11T13:23:10.781Z,8.40
2023-01-11T13:25:21.194Z,8.40
2023-01-11T13:27:25.799Z,8.40
2023-01-11T13:29:47.363Z,8.40
2023-01-11T13:31:50.194Z,8.40
2023-01-11T13:33:59.353Z,8.40
2023-01-11T13:36:22.841Z,8.40
2023-01-11T13:38:41.141Z,8.30
2023-01-11T13:40:48.447Z,8.30
2023-01-11T13:43:05.979Z,8.30
2023-01-11T13:45:23.885Z,8.30
2023-01-11T13:47:39.762Z,8.30
2023-01-11T13:49:49.560Z,8.30
2023-01-11T13:52:00.608Z,8.30
2023-01-11T13:54:14.015Z,8.30
2023-01-11T13:56:22.234Z,8.30
2023-01-11T13:58:36.931Z,8.20
2023-01-11T14:00:52.372Z,8.30
2023-01-11T14:03:02.375Z,8.20
2023-01-11T14:05:14.897Z,8.20
2023-01-11T14:07:31.940Z,8.20
2023-01-11T14:10:18.529Z,8.20
2023-01-11T14:12:43.448Z,8.20
2023-01-11T14:15:12.221Z,8.20
2023-01-11T14:17:33.702Z,8.20
2023-01-11T14:20:00.526Z,8.20
2023-01-11T14:22:11.287Z,8.20
2023-01-11T14:24:15.709Z,8.20
2023-01-11T14:26:42.077Z,8.20
2023-01-11T14:29:15.945Z,8.20
2023-01-11T14:31:37.251Z,8.20
2023-01-11T14:33:56.628Z,8.10
2023-01-11T14:36:27.644Z,8.00
2023-01-11T14:38:44.465Z,8.00
2023-01-11T14:41:05.019Z,7.90
2023-01-11T14:43:47.415Z,7.90
2023-01-11T14:46:06.927Z,7.90
2023-01-11T14:48:23.593Z,7.80
2023-01-11T14:50:57.639Z,7.80
2023-01-11T14:53:01.967Z,7.70
2023-01-11T14:55:10.702Z,7.70
2023-01-11T14:57:41.863Z,7.70
2023-01-11T14:59:43.900Z,7.70
2023-01-11T15:02:04.248Z,7.70
2023-01-11T15:04:22.408Z,7.70
2023-01-11T15:06:25.073Z,7.70
2023-01-11T15:08:47.531Z,7.60
2023-01-11T15:11:21.509Z,7.60
2023-01-11T15:13:33.707Z,7.60
2023-01-11T15:15:54.097Z,7.60
2023-01-11T15:18:15.680Z,7.60
2023-01-11T15:20:19.870Z,7.60
2023-01-11T15:22:30.846Z,7.50
2023-01-11T15:24:43.214Z,7.50
2023-01-11T15:26:49.592Z,7.50
2023-01-11T15:28:52.968Z,7.50
2023-01-11T15:30:54.829Z,7.50
2023-01-11T15:33:19.363Z,7.40
2023-01-11T15:35:26.856Z,7.40
2023-01-11T15:37:36.464Z,7.40
2023-01-11T15:40:01.182Z,7.40
2023-01-11T15:42:15.233Z,7.40
2023-01-11T15:44:46.993Z,7.30
2023-01-11T15:47:30.848Z,7.20
2023-01-11T15:49:54.252Z,7.30
2023-01-11T15:52:11.066Z,7.20
2023-01-11T15:54:43.755Z,7.20
2023-01-11T15:57:04.393Z,7.20
2023-01-11T15:59:39.967Z,7.20
2023-01-11T16:02:18.644Z,7.10
2023-01-11T16:04:20.555Z,7.10
2023-01-11T16:06:42.166Z,7.10
2023-01-11T16:09:09.284Z,7.10
2023-01-11T16:11:35.799Z,7.10
2023-01-11T16:13:58.724Z,7.10
2023-01-11T16:16:26.934Z,7.10
2023-01-11T16:18:35.918Z,7.10
2023-01-11T16:20:38.272Z,7.10
2023-01-11T16:22:40.158Z,7.10
2023-01-11T16:24:46.389Z,7.10
2023-01-11T16:26:55.899Z,7.00
2023-01-11T16:28:58.729Z,7.00
2023-01-11T16:31:03.562Z,6.90
2023-01-11T16:33:15.324Z,6.90
2023-01-11T16:35:18.797Z,6.90
2023-01-11T16:37:29.079Z,6.90
2023-01-11T16:39:33.665Z,6.90
2023-01-11T16:41:43.673Z,6.90
2023-01-11T16:44:07.567Z,6.90
2023-01-11T16:46:57.697Z,7.00
2023-01-11T16:49:09.507Z,7.00
2023-01-11T16:51:16.463Z,6.90
2023-01-11T16:53:18.426Z,6.90
2023-01-11T16:55:34.091Z,6.80
2023-01-11T16:57:40.456Z,6.80
2023-01-11T16:59:42.234Z,6.80
2023-01-11T17:01:52.839Z,6.80
2023-01-11T17:03:55.205Z,6.80
2023-01-11T17:06:02.892Z,6.80
2023-01-11T17:08:24.715Z,6.80
2023-01-11T17:10:29.178Z,6.70
2023-01-11T17:12:30.822Z,6.70
2023-01-11T17:14:51.364Z,6.70
2023-01-11T17:16:59.749Z,6.70
2023-01-11T17:19:14.335Z,6.70
2023-01-11T17:21:23.399Z,6.70
2023-01-11T17:23:25.167Z,6.70
2023-01-11T17:25:44.077Z,6.70
2023-01-11T17:27:57.763Z,6.70
2023-01-11T17:30:00.751Z,6.70
2023-01-11T17:32:06.180Z,6.70
2023-01-11T17:34:23.206Z,6.70
2023-01-11T17:36:25.243Z,6.70
2023-01-11T17:38:28.557Z,6.60
2023-01-11T17:40:34.506Z,6.60
2023-01-11T17:42:54.754Z,6.60
2023-01-11T17:45:15.085Z,6.60
2023-01-11T17:47:17.021Z,6.60
2023-01-11T17:49:24.184Z,6.60
2023-01-11T17:51:31.587Z,6.60
2023-01-11T17:53:35.312Z,6.60
2023-01-11T17:55:37.279Z,6.60
2023-01-11T17:57:39.096Z,6.60
2023-01-11T17:59:41.018Z,6.70
2023-01-11T18:01:51.280Z,6.70
2023-01-11T18:03:59.444Z,6.80
2023-01-11T18:06:10.961Z,6.70
2023-01-11T18:08:21.885Z,6.70
2023-01-11T18:10:29.214Z,6.70
2023-01-11T18:12:34.333Z,6.60
2023-01-11T18:14:59.511Z,6.50
2023-01-11T18:17:26.116Z,6.40
2023-01-11T18:19:40.453Z,6.20
2023-01-11T18:21:51.726Z,6.10
2023-01-11T18:24:11.779Z,5.90
2023-01-11T18:26:31.927Z,5.80
2023-01-11T18:28:37.872Z,5.70
2023-01-11T18:30:47.452Z,5.70
2023-01-11T18:32:49.193Z,5.60
2023-01-11T18:34:53.529Z,5.60
2023-01-11T18:36:59.419Z,5.50
2023-01-11T18:39:01.959Z,5.50
2023-01-11T18:41:26.202Z,5.40
2023-01-11T18:43:31.047Z,5.40
2023-01-11T18:45:33.054Z,5.40
2023-01-11T18:47:34.805Z,5.30
2023-01-11T18:49:36.455Z,5.20
2023-01-11T18:51:41.853Z,5.20
2023-01-11T18:53:43.829Z,5.20
2023-01-11T18:55:46.203Z,5.10
2023-01-11T18:57:48.042Z,5.10
2023-01-11T18:59:52.334Z,5.10
2023-01-11T19:02:15.788Z,5.10
2023-01-11T19:04:18.567Z,5.10
2023-01-11T19:06:22.652Z,5.10
2023-01-11T19:08:24.361Z,5.10
2023-01-11T19:10:26.919Z,5.20
2023-01-11T19:12:28.729Z,5.20
2023-01-11T19:14:30.450Z,5.30
2023-01-11T19:16:32.348Z,5.30
2023-01-11T19:18:35.379Z,5.30
2023-01-11T19:20:37.733Z,5.30
2023-01-11T19:22:39.839Z,5.40
2023-01-11T19:24:41.726Z,5.40
2023-01-11T19:26:43.509Z,5.40
2023-01-11T19:28:45.378Z,5.30
2023-01-11T19:30:47.222Z,5.40
2023-01-11T19:32:53.360Z,5.30
2023-01-11T19:34:58.110Z,5.30
2023-01-11T19:37:00.537Z,5.30
2023-01-11T19:39:02.271Z,5.20
2023-01-11T19:41:07.053Z,5.20
2023-01-11T19:43:08.710Z,5.10
2023-01-11T19:45:10.420Z,5.10
2023-01-11T19:47:15.594Z,5.10
2023-01-11T19:49:17.763Z,5.00
2023-01-11T19:51:20.014Z,5.10
2023-01-11T19:53:21.991Z,5.20
2023-01-11T19:55:24.764Z,5.20
2023-01-11T19:57:27.545Z,5.30
2023-01-11T19:59:29.193Z,5.30
2023-01-11T20:01:31.017Z,5.20
2023-01-11T20:03:32.780Z,5.20
2023-01-11T20:05:34.699Z,5.10
2023-01-11T20:07:36.570Z,5.10
2023-01-11T20:09:38.712Z,5.10
2023-01-11T20:11:40.856Z,5.00
2023-01-11T20:13:43.162Z,5.00
2023-01-11T20:15:45.162Z,4.90
2023-01-11T20:17:46.870Z,4.90
2023-01-11T20:19:54.470Z,4.80
2023-01-11T20:21:56.679Z,4.80
2023-01-11T20:23:58.485Z,4.80
2023-01-11T20:26:04.763Z,4.90
2023-01-11T20:28:06.487Z,5.00
2023-01-11T20:30:09.148Z,5.00
2023-01-11T20:32:34.890Z,5.00
2023-01-11T20:34:32.825Z,5.00
2023-01-11T20:36:34.561Z,5.00
2023-01-11T20:38:36.239Z,5.00
2023-01-11T20:40:41.495Z,5.00
2023-01-11T20:42:43.330Z,4.90
2023-01-11T20:44:44.989Z,4.90
2023-01-11T20:46:48.287Z,4.80
2023-01-11T20:48:50.178Z,4.70
2023-01-11T20:50:51.879Z,4.70
2023-01-11T20:52:53.665Z,4.80
2023-01-11T20:54:55.395Z,4.90
2023-01-11T20:57:05.481Z,4.90
2023-01-11T20:59:08.987Z,4.90
2023-01-11T21:01:11.117Z,5.00
2023-01-11T21:03:13.063Z,5.00
2023-01-11T21:05:15.063Z,4.90
2023-01-11T21:07:16.761Z,4.90
2023-01-11T21:09:18.880Z,4.90
2023-01-11T21:11:20.585Z,4.80
2023-01-11T21:13:22.197Z,4.70
2023-01-11T21:15:24.698Z,4.70
2023-01-11T21:17:26.434Z,4.70
2023-01-11T21:19:28.233Z,4.70
2023-01-11T21:21:32.441Z,4.70
2023-01-11T21:23:34.209Z,4.60
2023-01-11T21:25:35.908Z,4.60
2023-01-11T21:27:39.077Z,4.50
2023-01-11T21:29:40.957Z,4.40
2023-01-11T21:31:43.026Z,4.40
2023-01-11T21:33:44.822Z,4.40
2023-01-11T21:35:46.518Z,4.40
2023-01-11T21:37:48.651Z,4.50
2023-01-11T21:39:51.499Z,4.50
2023-01-11T21:41:57.568Z,4.50
2023-01-11T21:43:59.289Z,4.50
2023-01-11T21:46:01.877Z,4.40
2023-01-11T21:48:03.615Z,4.30
2023-01-11T21:50:07.830Z,4.30
2023-01-11T21:52:09.833Z,4.30
2023-01-11T21:54:13.666Z,4.20
2023-01-11T21:56:15.661Z,4.20
2023-01-11T21:58:17.722Z,4.20
2023-01-11T22:00:19.911Z,4.10
2023-01-11T22:02:21.731Z,4.00
2023-01-11T22:04:23.709Z,4.00
2023-01-11T22:06:25.580Z,3.90
2023-01-11T22:08:27.439Z,3.90
2023-01-11T22:10:30.022Z,3.90
2023-01-11T22:12:33.517Z,3.80
2023-01-11T22:14:35.641Z,3.80
2023-01-11T22:16:37.813Z,3.90
2023-01-11T22:18:41.189Z,3.90
2023-01-11T22:20:42.917Z,3.90
2023-01-11T22:22:44.821Z,3.90
2023-01-11T22:24:46.541Z,3.90
2023-01-11T22:26:48.286Z,4.00
2023-01-11T22:29:11.945Z,3.90
2023-01-11T22:31:15.623Z,3.90
2023-01-11T22:33:17.410Z,3.90
2023-01-11T22:35:19.108Z,3.90
2023-01-11T22:37:21.930Z,3.90
2023-01-11T22:39:24.835Z,3.90
2023-01-11T22:41:26.898Z,3.90
2023-01-11T22:43:29.597Z,3.90
2023-01-11T22:45:31.655Z,3.90
2023-01-11T22:47:33.705Z,3.90
2023-01-11T22:49:35.393Z,3.90
2023-01-11T22:51:37.350Z,3.90
2023-01-11T22:53:45.642Z,4.00
2023-01-11T22:55:47.521Z,4.10
2023-01-11T22:57:49.203Z,4.00
2023-01-11T22:59:50.840Z,4.00
2023-01-11T23:01:52.618Z,4.10
2023-01-11T23:03:55.676Z,4.10
2023-01-11T23:05:57.563Z,4.10
2023-01-11T23:07:59.217Z,4.20
2023-01-11T23:10:00.981Z,4.20
2023-01-11T23:12:21.447Z,4.20
2023-01-11T23:14:28.592Z,4.20
2023-01-11T23:16:30.433Z,4.20
2023-01-11T23:18:32.320Z,4.20
2023-01-11T23:20:34.851Z,4.10
2023-01-11T23:22:36.654Z,4.10
2023-01-11T23:24:39.009Z,4.10
2023-01-11T23:26:40.952Z,4.00
2023-01-11T23:28:42.838Z,4.00
2023-01-11T23:30:44.499Z,4.10
2023-01-11T23:32:46.315Z,4.10
2023-01-11T23:34:48.019Z,4.00
2023-01-11T23:36:49.725Z,4.10
2023-01-11T23:38:51.749Z,4.10
2023-01-11T23:41:12.252Z,4.00
2023-01-11T23:43:13.942Z,4.00
2023-01-11T23:45:15.982Z,4.00
2023-01-11T23:47:29.648Z,3.90
2023-01-11T23:49:32.463Z,3.90
2023-01-11T23:51:35.123Z,4.00
2023-01-11T23:53:36.892Z,4.00
2023-01-11T23:55:40.105Z,4.00
2023-01-11T23:58:01.799Z,3.90
